Terminal Aerodrome Forecast
Issued by NWS

Home | Current Version | Previous Version | Text Only | Print | Product List | Glossary On
Versions: 1 2 3 4 5 6 7 8 9 10 11 12 13 14 15 16
000
FTUS43 KDLH 182300 RRA
TAFBRD
TAF
KBRD 182350Z 1900/1924 09008KT P6SM SKC
     FM190400 10008KT P6SM SCT035 OVC060
     FM190700 12011KT 4SM -RA BR SCT015 OVC025
     FM191000 14012KT 2SM -DZ BR OVC008
     FM191800 30008KT P6SM SCT012=

USA.gov is the U.S. government's official web portal to all federal, state and local government web resources and services.